sensor_id;sensor_type;location;lat;lon;timestamp;pressure;altitude;pressure_sealevel;temperature;humidity
50356;BME280;36264;51.296;-0.602;2023-05-01T00:00:47;101549.13;;;18.75;59.22
50356;BME280;36264;51.296;-0.602;2023-05-01T00:03:13;101556.94;;;18.76;59.38
50356;BME280;36264;51.296;-0.602;2023-05-01T00:05:38;101549.97;;;18.75;59.34
50356;BME280;36264;51.296;-0.602;2023-05-01T00:08:04;101557.84;;;18.75;59.18
50356;BME280;36264;51.296;-0.602;2023-05-01T00:10:29;101552.69;;;18.74;59.16
50356;BME280;36264;51.296;-0.602;2023-05-01T00:12:55;101560.66;;;18.72;59.45
50356;BME280;36264;51.296;-0.602;2023-05-01T00:15:20;101557.09;;;18.73;59.16
50356;BME280;36264;51.296;-0.602;2023-05-01T00:17:46;101548.25;;;18.74;59.30
50356;BME280;36264;51.296;-0.602;2023-05-01T00:20:12;101549.19;;;18.73;59.50
50356;BME280;36264;51.296;-0.602;2023-05-01T00:22:38;101536.28;;;18.69;59.69
50356;BME280;36264;51.296;-0.602;2023-05-01T00:25:03;101539.69;;;18.71;59.67
50356;BME280;36264;51.296;-0.602;2023-05-01T00:27:29;101537.97;;;18.70;59.76
50356;BME280;36264;51.296;-0.602;2023-05-01T00:29:54;101545.69;;;18.73;59.41
50356;BME280;36264;51.296;-0.602;2023-05-01T00:32:19;101534.25;;;18.74;59.59
50356;BME280;36264;51.296;-0.602;2023-05-01T00:34:45;101523.72;;;18.74;59.40
50356;BME280;36264;51.296;-0.602;2023-05-01T00:37:12;101528.06;;;18.75;59.51
50356;BME280;36264;51.296;-0.602;2023-05-01T00:39:38;101523.66;;;18.75;59.62
50356;BME280;36264;51.296;-0.602;2023-05-01T00:42:03;101520.94;;;18.77;59.41
50356;BME280;36264;51.296;-0.602;2023-05-01T00:44:28;101515.66;;;18.77;59.52
50356;BME280;36264;51.296;-0.602;2023-05-01T00:46:54;101507.03;;;18.75;59.54
50356;BME280;36264;51.296;-0.602;2023-05-01T00:49:20;101507.84;;;18.75;59.58
50356;BME280;36264;51.296;-0.602;2023-05-01T00:51:48;101508.53;;;18.79;59.75
50356;BME280;36264;51.296;-0.602;2023-05-01T00:54:17;101492.16;;;18.74;59.85
50356;BME280;36264;51.296;-0.602;2023-05-01T00:56:43;101498.25;;;18.74;59.60
50356;BME280;36264;51.296;-0.602;2023-05-01T00:59:08;101495.69;;;18.73;59.71
50356;BME280;36264;51.296;-0.602;2023-05-01T01:01:34;101493.94;;;18.73;59.63
50356;BME280;36264;51.296;-0.602;2023-05-01T01:04:00;101494.88;;;18.72;59.80
50356;BME280;36264;51.296;-0.602;2023-05-01T01:06:43;101490.28;;;18.76;59.89
50356;BME280;36264;51.296;-0.602;2023-05-01T01:12:00;101482.72;;;18.70;60.31
50356;BME280;36264;51.296;-0.602;2023-05-01T01:14:32;101484.50;;;18.69;60.08
50356;BME280;36264;51.296;-0.602;2023-05-01T01:17:10;101479.84;;;18.74;59.96
50356;BME280;36264;51.296;-0.602;2023-05-01T01:22:36;101470.50;;;18.69;59.91
50356;BME280;36264;51.296;-0.602;2023-05-01T01:25:26;101458.94;;;18.71;59.69
50356;BME280;36264;51.296;-0.602;2023-05-01T01:28:20;101456.31;;;18.71;60.12
50356;BME280;36264;51.296;-0.602;2023-05-01T01:31:07;101461.81;;;18.67;59.79
50356;BME280;36264;51.296;-0.602;2023-05-01T01:33:42;101454.63;;;18.54;59.86
50356;BME280;36264;51.296;-0.602;2023-05-01T01:36:18;101454.38;;;18.59;59.79
50356;BME280;36264;51.296;-0.602;2023-05-01T01:39:00;101447.56;;;18.55;59.99
50356;BME280;36264;51.296;-0.602;2023-05-01T01:41:33;101446.09;;;18.49;59.89
50356;BME280;36264;51.296;-0.602;2023-05-01T01:46:47;101443.03;;;18.41;59.84
50356;BME280;36264;51.296;-0.602;2023-05-01T01:49:21;101441.50;;;18.37;59.87
50356;BME280;36264;51.296;-0.602;2023-05-01T01:51:49;101439.03;;;18.34;59.88
50356;BME280;36264;51.296;-0.602;2023-05-01T01:54:18;101425.19;;;18.30;60.02
50356;BME280;36264;51.296;-0.602;2023-05-01T01:56:47;101433.16;;;18.28;59.94
50356;BME280;36264;51.296;-0.602;2023-05-01T01:59:15;101430.59;;;18.27;59.85
50356;BME280;36264;51.296;-0.602;2023-05-01T02:01:42;101427.13;;;18.26;59.84
50356;BME280;36264;51.296;-0.602;2023-05-01T02:04:09;101423.75;;;18.24;60.03
50356;BME280;36264;51.296;-0.602;2023-05-01T02:06:37;101411.91;;;18.16;60.01
50356;BME280;36264;51.296;-0.602;2023-05-01T02:09:04;101418.63;;;18.21;60.13
50356;BME280;36264;51.296;-0.602;2023-05-01T02:11:32;101414.47;;;18.17;60.13
50356;BME280;36264;51.296;-0.602;2023-05-01T02:14:00;101422.59;;;18.13;60.22
50356;BME280;36264;51.296;-0.602;2023-05-01T02:16:26;101412.06;;;18.13;60.18
50356;BME280;36264;51.296;-0.602;2023-05-01T02:18:53;101406.13;;;18.09;60.21
50356;BME280;36264;51.296;-0.602;2023-05-01T02:21:20;101408.00;;;18.07;60.42
50356;BME280;36264;51.296;-0.602;2023-05-01T02:23:47;101405.53;;;18.04;60.57
50356;BME280;36264;51.296;-0.602;2023-05-01T02:26:15;101406.22;;;18.07;60.47
50356;BME280;36264;51.296;-0.602;2023-05-01T02:28:42;101410.94;;;18.01;60.63
50356;BME280;36264;51.296;-0.602;2023-05-01T02:31:08;101409.06;;;18.03;60.60
50356;BME280;36264;51.296;-0.602;2023-05-01T02:33:34;101411.78;;;18.01;60.72
50356;BME280;36264;51.296;-0.602;2023-05-01T02:36:00;101410.78;;;18.04;60.72
50356;BME280;36264;51.296;-0.602;2023-05-01T02:38:25;101408.91;;;18.06;60.83
50356;BME280;36264;51.296;-0.602;2023-05-01T02:40:53;101402.75;;;18.07;60.74
50356;BME280;36264;51.296;-0.602;2023-05-01T02:43:21;101411.53;;;18.06;60.86
50356;BME280;36264;51.296;-0.602;2023-05-01T02:45:48;101408.75;;;18.09;61.00
50356;BME280;36264;51.296;-0.602;2023-05-01T02:48:17;101413.03;;;18.12;61.08
50356;BME280;36264;51.296;-0.602;2023-05-01T02:50:45;101414.00;;;18.09;61.34
50356;BME280;36264;51.296;-0.602;2023-05-01T02:53:12;101409.59;;;18.09;61.28
50356;BME280;36264;51.296;-0.602;2023-05-01T02:55:37;101401.63;;;18.11;61.37
50356;BME280;36264;51.296;-0.602;2023-05-01T02:58:04;101409.34;;;18.14;61.35
50356;BME280;36264;51.296;-0.602;2023-05-01T03:00:30;101402.25;;;18.16;61.72
50356;BME280;36264;51.296;-0.602;2023-05-01T03:02:55;101405.38;;;18.07;62.57
50356;BME280;36264;51.296;-0.602;2023-05-01T03:05:21;101393.97;;;18.06;62.70
50356;BME280;36264;51.296;-0.602;2023-05-01T03:07:47;101395.16;;;18.01;63.17
50356;BME280;36264;51.296;-0.602;2023-05-01T03:10:12;101395.94;;;18.03;63.24
50356;BME280;36264;51.296;-0.602;2023-05-01T03:12:38;101390.66;;;18.03;63.43
50356;BME280;36264;51.296;-0.602;2023-05-01T03:15:03;101398.03;;;17.96;64.19
50356;BME280;36264;51.296;-0.602;2023-05-01T03:17:30;101390.31;;;17.93;64.33
50356;BME280;36264;51.296;-0.602;2023-05-01T03:19:55;101392.78;;;17.96;64.16
50356;BME280;36264;51.296;-0.602;2023-05-01T03:22:20;101398.56;;;18.03;63.93
50356;BME280;36264;51.296;-0.602;2023-05-01T03:24:46;101394.84;;;18.07;63.80
50356;BME280;36264;51.296;-0.602;2023-05-01T03:27:12;101401.47;;;18.14;63.82
50356;BME280;36264;51.296;-0.602;2023-05-01T03:29:37;101395.00;;;18.04;64.52
50356;BME280;36264;51.296;-0.602;2023-05-01T03:32:03;101391.31;;;17.90;65.04
50356;BME280;36264;51.296;-0.602;2023-05-01T03:34:28;101403.03;;;17.83;65.52
50356;BME280;36264;51.296;-0.602;2023-05-01T03:36:55;101405.81;;;17.80;65.19
50356;BME280;36264;51.296;-0.602;2023-05-01T03:39:21;101406.38;;;17.69;65.42
50356;BME280;36264;51.296;-0.602;2023-05-01T03:41:46;101399.00;;;17.59;65.95
50356;BME280;36264;51.296;-0.602;2023-05-01T03:44:12;101410.53;;;17.56;66.01
50356;BME280;36264;51.296;-0.602;2023-05-01T03:46:37;101415.94;;;17.53;66.13
50356;BME280;36264;51.296;-0.602;2023-05-01T03:49:03;101414.06;;;17.37;66.30
50356;BME280;36264;51.296;-0.602;2023-05-01T03:51:28;101401.34;;;17.47;65.79
50356;BME280;36264;51.296;-0.602;2023-05-01T03:53:53;101396.38;;;17.59;65.37
50356;BME280;36264;51.296;-0.602;2023-05-01T03:56:23;101384.66;;;17.66;64.95
50356;BME280;36264;51.296;-0.602;2023-05-01T03:58:52;101390.91;;;17.63;64.95
50356;BME280;36264;51.296;-0.602;2023-05-01T04:01:18;101396.78;;;17.68;64.58
50356;BME280;36264;51.296;-0.602;2023-05-01T04:03:44;101389.44;;;17.75;64.67
50356;BME280;36264;51.296;-0.602;2023-05-01T04:06:10;101395.22;;;17.82;64.05
50356;BME280;36264;51.296;-0.602;2023-05-01T04:08:36;101391.53;;;17.86;63.87
50356;BME280;36264;51.296;-0.602;2023-05-01T04:11:01;101392.16;;;17.91;63.69
50356;BME280;36264;51.296;-0.602;2023-05-01T04:13:27;101387.53;;;17.96;63.62
50356;BME280;36264;51.296;-0.602;2023-05-01T04:15:52;101385.13;;;17.91;63.53
50356;BME280;36264;51.296;-0.602;2023-05-01T04:18:19;101391.16;;;17.93;63.51
50356;BME280;36264;51.296;-0.602;2023-05-01T04:20:45;101400.66;;;17.96;63.47
50356;BME280;36264;51.296;-0.602;2023-05-01T04:23:10;101392.63;;;17.99;63.39
50356;BME280;36264;51.296;-0.602;2023-05-01T04:25:36;101393.47;;;18.00;63.33
50356;BME280;36264;51.296;-0.602;2023-05-01T04:28:02;101392.53;;;18.01;63.32
50356;BME280;36264;51.296;-0.602;2023-05-01T04:30:29;101394.25;;;18.02;63.50
50356;BME280;36264;51.296;-0.602;2023-05-01T04:32:55;101393.63;;;17.97;63.46
50356;BME280;36264;51.296;-0.602;2023-05-01T04:35:21;101391.94;;;17.78;64.49
50356;BME280;36264;51.296;-0.602;2023-05-01T04:37:47;101395.53;;;17.75;64.20
50356;BME280;36264;51.296;-0.602;2023-05-01T04:40:13;101391.84;;;17.80;64.29
50356;BME280;36264;51.296;-0.602;2023-05-01T04:42:38;101400.94;;;17.72;64.33
50356;BME280;36264;51.296;-0.602;2023-05-01T04:45:04;101399.72;;;17.62;64.42
50356;BME280;36264;51.296;-0.602;2023-05-01T04:47:30;101394.16;;;17.68;64.09
50356;BME280;36264;51.296;-0.602;2023-05-01T04:49:55;101401.88;;;17.71;63.76
50356;BME280;36264;51.296;-0.602;2023-05-01T04:52:21;101395.63;;;17.74;63.79
50356;BME280;36264;51.296;-0.602;2023-05-01T04:54:46;101397.50;;;17.72;63.80
50356;BME280;36264;51.296;-0.602;2023-05-01T04:57:12;101400.41;;;17.83;63.21
50356;BME280;36264;51.296;-0.602;2023-05-01T04:59:38;101400.34;;;17.85;63.12
50356;BME280;36264;51.296;-0.602;2023-05-01T05:02:03;101401.06;;;17.88;62.85
50356;BME280;36264;51.296;-0.602;2023-05-01T05:04:29;101404.66;;;17.86;62.81
50356;BME280;36264;51.296;-0.602;2023-05-01T05:06:54;101405.59;;;17.85;62.75
50356;BME280;36264;51.296;-0.602;2023-05-01T05:09:20;101410.84;;;17.85;62.87
50356;BME280;36264;51.296;-0.602;2023-05-01T05:11:45;101399.41;;;17.86;62.84
50356;BME280;36264;51.296;-0.602;2023-05-01T05:14:10;101401.09;;;17.87;62.86
50356;BME280;36264;51.296;-0.602;2023-05-01T05:16:36;101407.19;;;17.87;62.70
50356;BME280;36264;51.296;-0.602;2023-05-01T05:19:01;101404.53;;;17.89;62.66
50356;BME280;36264;51.296;-0.602;2023-05-01T05:21:27;101401.88;;;17.89;62.65
50356;BME280;36264;51.296;-0.602;2023-05-01T05:23:52;101405.38;;;17.89;62.77
50356;BME280;36264;51.296;-0.602;2023-05-01T05:26:18;101399.09;;;17.92;62.60
50356;BME280;36264;51.296;-0.602;2023-05-01T05:28:43;101404.22;;;17.95;62.52
50356;BME280;36264;51.296;-0.602;2023-05-01T05:31:09;101401.81;;;17.90;62.62
50356;BME280;36264;51.296;-0.602;2023-05-01T05:33:34;101410.50;;;17.92;62.61
50356;BME280;36264;51.296;-0.602;2023-05-01T05:36:00;101412.97;;;17.96;62.76
50356;BME280;36264;51.296;-0.602;2023-05-01T05:38:25;101406.75;;;17.97;62.79
50356;BME280;36264;51.296;-0.602;2023-05-01T05:40:51;101400.44;;;18.01;62.85
50356;BME280;36264;51.296;-0.602;2023-05-01T05:43:18;101401.34;;;18.00;62.79
50356;BME280;36264;51.296;-0.602;2023-05-01T05:45:43;101402.13;;;18.02;62.74
50356;BME280;36264;51.296;-0.602;2023-05-01T05:48:09;101401.09;;;18.04;62.98
50356;BME280;36264;51.296;-0.602;2023-05-01T05:50:34;101401.88;;;18.06;62.89
50356;BME280;36264;51.296;-0.602;2023-05-01T05:52:59;101414.25;;;18.04;62.72
50356;BME280;36264;51.296;-0.602;2023-05-01T05:55:25;101411.69;;;18.03;62.97
50356;BME280;36264;51.296;-0.602;2023-05-01T05:57:50;101406.44;;;18.03;63.07
50356;BME280;36264;51.296;-0.602;2023-05-01T06:00:16;101403.66;;;18.06;63.04
50356;BME280;36264;51.296;-0.602;2023-05-01T06:02:41;101402.97;;;18.02;63.05
50356;BME280;36264;51.296;-0.602;2023-05-01T06:05:07;101398.72;;;18.00;63.19
50356;BME280;36264;51.296;-0.602;2023-05-01T06:07:34;101406.00;;;17.95;63.25
50356;BME280;36264;51.296;-0.602;2023-05-01T06:10:00;101409.69;;;17.90;63.40
50356;BME280;36264;51.296;-0.602;2023-05-01T06:12:29;101410.78;;;17.86;63.57
50356;BME280;36264;51.296;-0.602;2023-05-01T06:14:56;101424.53;;;17.74;63.95
50356;BME280;36264;51.296;-0.602;2023-05-01T06:17:22;101420.97;;;17.75;63.83
50356;BME280;36264;51.296;-0.602;2023-05-01T06:19:48;101424.44;;;17.75;63.90
50356;BME280;36264;51.296;-0.602;2023-05-01T06:22:14;101423.16;;;17.84;63.78
50356;BME280;36264;51.296;-0.602;2023-05-01T06:24:40;101425.53;;;17.89;63.83
50356;BME280;36264;51.296;-0.602;2023-05-01T06:27:05;101427.03;;;17.95;63.61
50356;BME280;36264;51.296;-0.602;2023-05-01T06:29:30;101427.78;;;17.97;63.52
50356;BME280;36264;51.296;-0.602;2023-05-01T06:31:56;101426.88;;;17.98;63.43
50356;BME280;36264;51.296;-0.602;2023-05-01T06:34:21;101426.09;;;17.96;63.67
50356;BME280;36264;51.296;-0.602;2023-05-01T06:36:47;101426.88;;;17.98;63.68
50356;BME280;36264;51.296;-0.602;2023-05-01T06:39:12;101426.56;;;18.04;63.51
50356;BME280;36264;51.296;-0.602;2023-05-01T06:41:37;101423.59;;;18.10;63.61
50356;BME280;36264;51.296;-0.602;2023-05-01T06:44:03;101420.25;;;18.06;63.71
50356;BME280;36264;51.296;-0.602;2023-05-01T06:46:29;101421.97;;;18.07;63.72
50356;BME280;36264;51.296;-0.602;2023-05-01T06:48:55;101416.66;;;18.09;63.53
50356;BME280;36264;51.296;-0.602;2023-05-01T06:51:20;101410.47;;;18.10;63.65
50356;BME280;36264;51.296;-0.602;2023-05-01T06:53:45;101418.44;;;18.08;63.71
50356;BME280;36264;51.296;-0.602;2023-05-01T06:56:11;101413.78;;;18.14;63.64
50356;BME280;36264;51.296;-0.602;2023-05-01T06:58:36;101416.94;;;18.20;63.53
50356;BME280;36264;51.296;-0.602;2023-05-01T07:01:02;101421.94;;;18.25;63.33
50356;BME280;36264;51.296;-0.602;2023-05-01T07:03:27;101421.88;;;18.26;63.57
50356;BME280;36264;51.296;-0.602;2023-05-01T07:05:53;101405.25;;;18.26;63.51
50356;BME280;36264;51.296;-0.602;2023-05-01T07:08:20;101422.94;;;18.40;63.58
50356;BME280;36264;51.296;-0.602;2023-05-01T07:10:45;101420.94;;;18.27;63.91
50356;BME280;36264;51.296;-0.602;2023-05-01T07:13:11;101423.25;;;18.34;63.78
50356;BME280;36264;51.296;-0.602;2023-05-01T07:15:36;101425.81;;;18.35;63.88
50356;BME280;36264;51.296;-0.602;2023-05-01T07:18:02;101430.28;;;18.33;64.04
50356;BME280;36264;51.296;-0.602;2023-05-01T07:20:30;101430.81;;;18.40;64.08
50356;BME280;36264;51.296;-0.602;2023-05-01T07:22:56;101437.69;;;18.42;64.34
50356;BME280;36264;51.296;-0.602;2023-05-01T07:25:21;101443.13;;;18.55;64.13
50356;BME280;36264;51.296;-0.602;2023-05-01T07:27:46;101438.94;;;18.69;63.08
50356;BME280;36264;51.296;-0.602;2023-05-01T07:30:12;101444.09;;;18.54;63.66
50356;BME280;36264;51.296;-0.602;2023-05-01T07:32:37;101445.59;;;18.58;64.10
50356;BME280;36264;51.296;-0.602;2023-05-01T07:35:03;101448.72;;;18.49;64.59
50356;BME280;36264;51.296;-0.602;2023-05-01T07:37:29;101445.66;;;18.41;64.92
50356;BME280;36264;51.296;-0.602;2023-05-01T07:39:55;101457.75;;;18.61;64.38
50356;BME280;36264;51.296;-0.602;2023-05-01T07:42:21;101456.22;;;18.57;64.41
50356;BME280;36264;51.296;-0.602;2023-05-01T07:44:49;101456.22;;;18.57;64.59
50356;BME280;36264;51.296;-0.602;2023-05-01T07:47:14;101458.25;;;18.52;64.66
50356;BME280;36264;51.296;-0.602;2023-05-01T07:49:40;101454.44;;;18.57;64.30
50356;BME280;36264;51.296;-0.602;2023-05-01T07:52:05;101455.63;;;18.68;64.09
50356;BME280;36264;51.296;-0.602;2023-05-01T07:54:35;101454.03;;;18.81;64.41
50356;BME280;36264;51.296;-0.602;2023-05-01T07:57:00;101451.41;;;18.81;63.98
50356;BME280;36264;51.296;-0.602;2023-05-01T07:59:26;101452.34;;;18.80;64.41
50356;BME280;36264;51.296;-0.602;2023-05-01T08:01:52;101453.81;;;18.86;64.43
50356;BME280;36264;51.296;-0.602;2023-05-01T08:04:17;101450.38;;;18.83;64.48
50356;BME280;36264;51.296;-0.602;2023-05-01T08:06:43;101461.38;;;18.92;64.18
50356;BME280;36264;51.296;-0.602;2023-05-01T08:09:08;101452.28;;;18.81;64.53
50356;BME280;36264;51.296;-0.602;2023-05-01T08:11:34;101462.66;;;18.85;64.41
50356;BME280;36264;51.296;-0.602;2023-05-01T08:13:59;101460.88;;;18.85;64.33
50356;BME280;36264;51.296;-0.602;2023-05-01T08:16:25;101454.81;;;18.83;64.55
50356;BME280;36264;51.296;-0.602;2023-05-01T08:18:51;101448.47;;;18.87;64.70
50356;BME280;36264;51.296;-0.602;2023-05-01T08:21:16;101444.16;;;19.02;64.32
50356;BME280;36264;51.296;-0.602;2023-05-01T08:23:41;101444.50;;;19.12;64.47
50356;BME280;36264;51.296;-0.602;2023-05-01T08:26:07;101447.09;;;19.28;64.24
50356;BME280;36264;51.296;-0.602;2023-05-01T08:28:35;101450.81;;;19.40;64.14
50356;BME280;36264;51.296;-0.602;2023-05-01T08:31:02;101444.22;;;19.32;64.02
50356;BME280;36264;51.296;-0.602;2023-05-01T08:33:27;101443.28;;;19.33;64.03
50356;BME280;36264;51.296;-0.602;2023-05-01T08:35:53;101445.22;;;19.30;63.96
50356;BME280;36264;51.296;-0.602;2023-05-01T08:38:18;101448.72;;;19.30;63.96
50356;BME280;36264;51.296;-0.602;2023-05-01T08:40:50;101445.47;;;19.41;63.71
50356;BME280;36264;51.296;-0.602;2023-05-01T08:43:16;101457.22;;;19.35;64.32
50356;BME280;36264;51.296;-0.602;2023-05-01T08:45:43;101453.81;;;19.33;63.96
50356;BME280;36264;51.296;-0.602;2023-05-01T08:48:11;101454.75;;;19.32;64.13
50356;BME280;36264;51.296;-0.602;2023-05-01T08:50:38;101446.25;;;19.43;64.17
50356;BME280;36264;51.296;-0.602;2023-05-01T08:53:04;101453.97;;;19.46;64.27
50356;BME280;36264;51.296;-0.602;2023-05-01T08:55:31;101459.75;;;19.37;64.12
50356;BME280;36264;51.296;-0.602;2023-05-01T08:57:58;101461.56;;;19.36;64.30
50356;BME280;36264;51.296;-0.602;2023-05-01T09:00:24;101458.13;;;19.34;64.24
50356;BME280;36264;51.296;-0.602;2023-05-01T09:02:50;101460.59;;;19.37;64.09
50356;BME280;36264;51.296;-0.602;2023-05-01T09:05:17;101465.88;;;19.37;64.15
50356;BME280;36264;51.296;-0.602;2023-05-01T09:07:44;101465.03;;;19.37;64.06
50356;BME280;36264;51.296;-0.602;2023-05-01T09:10:11;101472.34;;;19.32;64.39
50356;BME280;36264;51.296;-0.602;2023-05-01T09:12:37;101468.75;;;19.33;64.15
50356;BME280;36264;51.296;-0.602;2023-05-01T09:15:04;101470.22;;;19.39;64.09
50356;BME280;36264;51.296;-0.602;2023-05-01T09:17:31;101470.88;;;19.42;64.24
50356;BME280;36264;51.296;-0.602;2023-05-01T09:19:57;101480.66;;;19.40;64.00
50356;BME280;36264;51.296;-0.602;2023-05-01T09:22:23;101474.97;;;19.32;64.57
50356;BME280;36264;51.296;-0.602;2023-05-01T09:24:48;101480.06;;;19.51;64.34
50356;BME280;36264;51.296;-0.602;2023-05-01T09:27:14;101477.81;;;19.59;64.11
50356;BME280;36264;51.296;-0.602;2023-05-01T09:29:46;101489.44;;;19.71;64.03
50356;BME280;36264;51.296;-0.602;2023-05-01T09:34:42;101480.78;;;19.69;64.18
50356;BME280;36264;51.296;-0.602;2023-05-01T09:37:11;101479.06;;;19.68;64.17
50356;BME280;36264;51.296;-0.602;2023-05-01T09:39:37;101478.06;;;19.70;64.30
50356;BME280;36264;51.296;-0.602;2023-05-01T09:42:03;101490.13;;;19.75;64.03
50356;BME280;36264;51.296;-0.602;2023-05-01T09:44:28;101483.97;;;19.74;64.12
50356;BME280;36264;51.296;-0.602;2023-05-01T09:46:53;101489.44;;;19.71;63.84
50356;BME280;36264;51.296;-0.602;2023-05-01T09:49:19;101487.50;;;19.75;64.04
50356;BME280;36264;51.296;-0.602;2023-05-01T09:52:15;101488.31;;;19.91;64.07
50356;BME280;36264;51.296;-0.602;2023-05-01T09:54:41;101492.19;;;20.00;64.31
50356;BME280;36264;51.296;-0.602;2023-05-01T09:57:07;101489.56;;;20.14;63.69
50356;BME280;36264;51.296;-0.602;2023-05-01T09:59:32;101493.09;;;20.15;63.85
50356;BME280;36264;51.296;-0.602;2023-05-01T10:01:59;101496.28;;;20.20;63.71
50356;BME280;36264;51.296;-0.602;2023-05-01T10:04:34;101492.16;;;20.30;63.25
50356;BME280;36264;51.296;-0.602;2023-05-01T10:07:12;101494.22;;;20.25;62.16
50356;BME280;36264;51.296;-0.602;2023-05-01T10:09:38;101497.03;;;20.22;63.23
50356;BME280;36264;51.296;-0.602;2023-05-01T10:12:03;101497.03;;;20.22;63.73
50356;BME280;36264;51.296;-0.602;2023-05-01T10:14:29;101506.09;;;20.18;64.99
50356;BME280;36264;51.296;-0.602;2023-05-01T10:16:57;101502.06;;;19.96;66.21
50356;BME280;36264;51.296;-0.602;2023-05-01T10:19:23;101505.06;;;19.74;66.78
50356;BME280;36264;51.296;-0.602;2023-05-01T10:21:49;101515.56;;;19.60;67.71
50356;BME280;36264;51.296;-0.602;2023-05-01T10:24:15;101503.78;;;19.51;68.42
50356;BME280;36264;51.296;-0.602;2023-05-01T10:26:41;101502.63;;;19.55;68.97
50356;BME280;36264;51.296;-0.602;2023-05-01T10:29:11;101504.19;;;19.59;69.13
50356;BME280;36264;51.296;-0.602;2023-05-01T10:31:36;101498.31;;;19.54;69.87
50356;BME280;36264;51.296;-0.602;2023-05-01T10:34:02;101494.38;;;19.61;70.24
50356;BME280;36264;51.296;-0.602;2023-05-01T10:36:35;101494.31;;;19.63;72.51
50356;BME280;36264;51.296;-0.602;2023-05-01T10:39:02;101486.66;;;19.58;71.00
50356;BME280;36264;51.296;-0.602;2023-05-01T10:44:31;101494.53;;;19.74;71.88
50356;BME280;36264;51.296;-0.602;2023-05-01T10:46:58;101494.28;;;19.79;71.68
50356;BME280;36264;51.296;-0.602;2023-05-01T10:49:24;101490.72;;;19.80;71.73
50356;BME280;36264;51.296;-0.602;2023-05-01T10:51:59;101486.69;;;19.88;71.57
50356;BME280;36264;51.296;-0.602;2023-05-01T10:54:26;101486.53;;;19.76;71.30
50356;BME280;36264;51.296;-0.602;2023-05-01T10:56:56;101481.69;;;19.84;71.89
50356;BME280;36264;51.296;-0.602;2023-05-01T10:59:26;101486.59;;;19.90;72.16
50356;BME280;36264;51.296;-0.602;2023-05-01T11:01:53;101484.00;;;20.04;72.19
50356;BME280;36264;51.296;-0.602;2023-05-01T11:09:45;101484.25;;;20.44;74.64
50356;BME280;36264;51.296;-0.602;2023-05-01T11:12:18;101473.81;;;20.57;71.71
50356;BME280;36264;51.296;-0.602;2023-05-01T11:15:01;101477.59;;;20.68;70.88
50356;BME280;36264;51.296;-0.602;2023-05-01T11:22:50;101477.22;;;21.15;69.84
50356;BME280;36264;51.296;-0.602;2023-05-01T11:25:18;101480.78;;;21.29;68.37
50356;BME280;36264;51.296;-0.602;2023-05-01T11:27:49;101476.28;;;21.44;68.49
50356;BME280;36264;51.296;-0.602;2023-05-01T11:30:14;101479.41;;;21.50;68.14
50356;BME280;36264;51.296;-0.602;2023-05-01T11:32:43;101468.56;;;21.41;63.15
50356;BME280;36264;51.296;-0.602;2023-05-01T11:35:23;101467.31;;;21.46;62.63
50356;BME280;36264;51.296;-0.602;2023-05-01T11:37:50;101469.09;;;21.46;63.59
50356;BME280;36264;51.296;-0.602;2023-05-01T11:40:27;101474.78;;;21.54;63.66
50356;BME280;36264;51.296;-0.602;2023-05-01T11:43:06;101474.56;;;21.57;63.12
50356;BME280;36264;51.296;-0.602;2023-05-01T11:45:33;101474.28;;;21.62;63.64
50356;BME280;36264;51.296;-0.602;2023-05-01T11:47:58;101478.59;;;21.63;63.13
50356;BME280;36264;51.296;-0.602;2023-05-01T11:50:50;101476.91;;;21.62;58.00
50356;BME280;36264;51.296;-0.602;2023-05-01T11:53:16;101479.75;;;21.59;61.85
50356;BME280;36264;51.296;-0.602;2023-05-01T11:55:43;101482.41;;;21.59;62.21
50356;BME280;36264;51.296;-0.602;2023-05-01T11:58:09;101480.69;;;21.58;62.05
50356;BME280;36264;51.296;-0.602;2023-05-01T12:00:36;101483.34;;;21.58;60.87
50356;BME280;36264;51.296;-0.602;2023-05-01T12:03:10;101482.22;;;21.62;61.77
50356;BME280;36264;51.296;-0.602;2023-05-01T12:05:43;101483.03;;;21.62;61.72
50356;BME280;36264;51.296;-0.602;2023-05-01T12:08:20;101483.25;;;21.59;61.14
50356;BME280;36264;51.296;-0.602;2023-05-01T12:10:48;101484.78;;;21.49;61.59
50356;BME280;36264;51.296;-0.602;2023-05-01T12:13:15;101490.34;;;21.44;60.76
50356;BME280;36264;51.296;-0.602;2023-05-01T12:15:44;101492.97;;;21.44;60.83
50356;BME280;36264;51.296;-0.602;2023-05-01T12:18:13;101497.63;;;21.41;61.20
50356;BME280;36264;51.296;-0.602;2023-05-01T12:20:51;101497.75;;;21.25;61.66
50356;BME280;36264;51.296;-0.602;2023-05-01T12:23:18;101494.34;;;20.95;63.33
50356;BME280;36264;51.296;-0.602;2023-05-01T12:25:44;101488.81;;;20.86;64.37
50356;BME280;36264;51.296;-0.602;2023-05-01T12:30:38;101493.31;;;20.84;65.00
50356;BME280;36264;51.296;-0.602;2023-05-01T12:33:14;101496.22;;;20.93;64.17
50356;BME280;36264;51.296;-0.602;2023-05-01T12:35:41;101494.81;;;21.02;64.11
50356;BME280;36264;51.296;-0.602;2023-05-01T12:38:19;101497.66;;;21.26;63.49
50356;BME280;36264;51.296;-0.602;2023-05-01T12:40:52;101501.88;;;21.43;63.06
50356;BME280;36264;51.296;-0.602;2023-05-01T12:43:29;101498.81;;;21.64;62.74
50356;BME280;36264;51.296;-0.602;2023-05-01T12:45:55;101500.72;;;21.62;61.59
50356;BME280;36264;51.296;-0.602;2023-05-01T12:48:21;101513.25;;;21.58;60.51
50356;BME280;36264;51.296;-0.602;2023-05-01T12:50:47;101520.06;;;21.48;59.71
50356;BME280;36264;51.296;-0.602;2023-05-01T12:53:18;101520.91;;;21.21;60.01
50356;BME280;36264;51.296;-0.602;2023-05-01T12:55:45;101534.16;;;20.92;61.83
50356;BME280;36264;51.296;-0.602;2023-05-01T12:58:11;101522.09;;;20.74;62.45
50356;BME280;36264;51.296;-0.602;2023-05-01T13:00:53;101519.88;;;20.52;62.57
50356;BME280;36264;51.296;-0.602;2023-05-01T13:03:24;101525.88;;;20.39;63.86
50356;BME280;36264;51.296;-0.602;2023-05-01T13:05:54;101526.72;;;20.25;63.68
50356;BME280;36264;51.296;-0.602;2023-05-01T13:08:30;101527.78;;;20.37;64.60